Hanna, Indiana
Current Conditions -  °F | °C
As of 8:55 PM on Wednesday 26 Nov 2014 (Local Time) from KOXI Reporting Station
Overcast Overcast  
Wind Chill: 22°   Ceiling: 2400
Heat Index: 28°   Visibility: 10mi
Dew Point: 20°   Wind: 5mph
Humidity: 74%   Direction: 20°NNE
Pressure: 30.13"   Gusts: NA
Location:  41.41°N, 86.78°W
Report Text: KOXI 270255Z AUTO 02004KT 10SM OVC024 M02/M06 A3013 RMK AO1 T10251065
Loading
Personal Weather Stations






























Interactive Weather Map New forecast layout! Learn more

10-Day Weather Forecast

Advertisements
Track Severe Weather on mobile